createdAt,value
2022-08-14T00:02:03.591Z,57.29
2022-08-14T00:04:35.543Z,56.95
2022-08-14T00:07:09.261Z,57.29
2022-08-14T00:09:55.751Z,57.27
2022-08-14T00:12:48.065Z,57.11
2022-08-14T00:15:17.114Z,56.97
2022-08-14T00:17:48.347Z,56.96
2022-08-14T00:20:30.881Z,56.57
2022-08-14T00:23:12.421Z,56.83
2022-08-14T00:25:58.809Z,56.36
2022-08-14T00:28:35.607Z,56.31
2022-08-14T00:31:05.089Z,56.29
2022-08-14T00:33:50.705Z,56.32
2022-08-14T00:36:34.960Z,55.96
2022-08-14T00:39:18.116Z,56.42
2022-08-14T00:41:46.691Z,56.36
2022-08-14T00:44:13.860Z,56.56
2022-08-14T00:46:41.222Z,56.24
2022-08-14T00:49:11.624Z,56.31
2022-08-14T00:51:44.734Z,55.85
2022-08-14T00:54:21.185Z,56.01
2022-08-14T00:56:55.630Z,55.75
2022-08-14T00:59:25.347Z,55.62
2022-08-14T01:01:56.387Z,55.14
2022-08-14T01:04:37.913Z,55.20
2022-08-14T01:07:12.364Z,55.05
2022-08-14T01:09:41.820Z,55.26
2022-08-14T01:12:09.708Z,55.58
2022-08-14T01:14:37.969Z,55.98
2022-08-14T01:17:08.909Z,56.08
2022-08-14T01:19:55.083Z,56.41
2022-08-14T01:22:26.869Z,56.04
2022-08-14T01:24:54.301Z,56.02
2022-08-14T01:27:24.512Z,56.17
2022-08-14T01:30:00.766Z,56.74
2022-08-14T01:32:31.342Z,56.49
2022-08-14T01:35:20.662Z,56.18
2022-08-14T01:37:57.144Z,56.31
2022-08-14T01:40:33.263Z,56.17
2022-08-14T01:43:15.953Z,56.33
2022-08-14T01:45:57.733Z,56.70
2022-08-14T01:48:37.659Z,56.41
2022-08-14T01:51:19.272Z,56.51
2022-08-14T01:53:54.635Z,56.43
2022-08-14T01:56:37.189Z,56.75
2022-08-14T01:59:22.369Z,56.55
2022-08-14T02:01:58.565Z,56.57
2022-08-14T02:04:54.668Z,56.77
2022-08-14T02:07:34.545Z,56.99
2022-08-14T02:10:08.040Z,56.99
2022-08-14T02:12:41.179Z,56.88
2022-08-14T02:15:09.599Z,57.01
2022-08-14T02:17:36.610Z,56.56
2022-08-14T02:20:05.159Z,56.67
2022-08-14T02:22:33.289Z,56.77
2022-08-14T02:25:01.456Z,56.42
2022-08-14T02:28:25.368Z,56.70
2022-08-14T02:30:16.456Z,56.72
2022-08-14T02:32:44.560Z,57.15
2022-08-14T02:35:19.298Z,56.33
2022-08-14T02:37:50.154Z,56.24
2022-08-14T02:40:19.223Z,56.42
2022-08-14T02:42:54.201Z,56.29
2022-08-14T02:45:22.509Z,56.30
2022-08-14T02:47:53.739Z,56.13
2022-08-14T02:50:26.933Z,55.95
2022-08-14T02:52:57.637Z,56.06
2022-08-14T02:55:34.562Z,55.98
2022-08-14T02:58:03.061Z,55.90
2022-08-14T03:00:32.282Z,56.09
2022-08-14T03:02:59.866Z,55.78
2022-08-14T03:05:35.810Z,55.47
2022-08-14T03:08:15.294Z,55.51
2022-08-14T03:10:48.971Z,55.51
2022-08-14T03:13:19.459Z,55.65
2022-08-14T03:15:55.602Z,55.52
2022-08-14T03:18:32.039Z,55.44
2022-08-14T03:21:02.948Z,55.46
2022-08-14T03:23:38.081Z,55.55
2022-08-14T03:26:12.662Z,55.44
2022-08-14T03:28:48.352Z,55.47
2022-08-14T03:31:16.319Z,55.48
2022-08-14T03:33:44.268Z,55.67
2022-08-14T03:37:39.532Z,55.47
2022-08-14T03:39:16.158Z,55.83
2022-08-14T03:41:51.869Z,55.57
2022-08-14T03:45:26.173Z,56.34
2022-08-14T03:47:06.947Z,56.51
2022-08-14T03:49:39.681Z,56.92
2022-08-14T03:52:38.284Z,57.20
2022-08-14T03:54:56.968Z,57.38
2022-08-14T03:57:24.640Z,57.45
2022-08-14T03:59:51.659Z,57.51
2022-08-14T04:02:32.901Z,57.59
2022-08-14T04:05:12.683Z,57.93
2022-08-14T04:07:49.423Z,57.66
2022-08-14T04:10:26.336Z,57.57
2022-08-14T04:13:06.240Z,57.81
2022-08-14T04:15:56.465Z,57.88
2022-08-14T04:18:22.572Z,57.85
2022-08-14T04:20:54.521Z,57.87
2022-08-14T04:23:29.465Z,58.15
2022-08-14T04:26:14.583Z,57.97
2022-08-14T04:29:08.386Z,57.73
2022-08-14T04:33:01.948Z,57.64
2022-08-14T04:34:27.130Z,57.54
2022-08-14T04:37:22.114Z,57.35
2022-08-14T04:40:12.010Z,57.50
2022-08-14T04:42:58.448Z,57.60
2022-08-14T04:45:29.756Z,57.86
2022-08-14T04:48:12.981Z,58.65
2022-08-14T04:50:53.970Z,58.25
2022-08-14T04:53:26.267Z,58.57
2022-08-14T04:56:00.959Z,58.61
2022-08-14T04:58:32.303Z,58.31
2022-08-14T05:01:01.016Z,58.28
2022-08-14T05:03:32.170Z,58.02
2022-08-14T05:06:01.728Z,57.71
2022-08-14T05:08:57.040Z,57.83
2022-08-14T05:11:19.884Z,57.99
2022-08-14T05:14:17.151Z,58.09
2022-08-14T05:16:34.400Z,57.60
2022-08-14T05:19:18.127Z,57.59
2022-08-14T05:21:59.585Z,57.25
2022-08-14T05:24:29.419Z,57.19
2022-08-14T05:26:56.692Z,57.76
2022-08-14T05:29:23.931Z,57.38
2022-08-14T05:31:55.938Z,57.10
2022-08-14T05:34:31.963Z,55.99
2022-08-14T05:37:03.317Z,56.23
2022-08-14T05:39:31.882Z,56.34
2022-08-14T05:42:00.501Z,55.69
2022-08-14T05:44:30.647Z,55.47
2022-08-14T05:46:58.808Z,55.00
2022-08-14T05:49:33.171Z,55.10
2022-08-14T05:52:02.492Z,55.26
2022-08-14T05:54:35.482Z,55.42
2022-08-14T05:57:06.059Z,55.31
2022-08-14T05:59:38.733Z,54.76
2022-08-14T06:02:11.060Z,55.38
2022-08-14T06:04:39.598Z,55.00
2022-08-14T06:07:07.080Z,54.92
2022-08-14T06:09:35.557Z,55.27
2022-08-14T06:12:11.882Z,55.29
2022-08-14T06:14:39.530Z,54.69
2022-08-14T06:17:07.039Z,54.38
2022-08-14T06:19:34.539Z,54.04
2022-08-14T06:22:02.149Z,53.18
2022-08-14T06:24:30.579Z,53.02
2022-08-14T06:27:06.349Z,50.89
2022-08-14T06:29:38.228Z,50.89
2022-08-14T06:32:38.332Z,50.27
2022-08-14T06:35:04.017Z,50.12
2022-08-14T06:37:44.379Z,50.96
2022-08-14T06:40:25.352Z,50.50
2022-08-14T06:43:09.309Z,50.04
2022-08-14T06:45:39.068Z,48.90
2022-08-14T06:48:18.059Z,48.95
2022-08-14T06:50:48.838Z,48.74
2022-08-14T06:53:16.648Z,49.24
2022-08-14T06:55:58.467Z,48.98
2022-08-14T06:58:29.521Z,49.95
2022-08-14T07:01:25.151Z,50.28
2022-08-14T07:04:23.676Z,50.28
2022-08-14T07:06:59.203Z,49.72
2022-08-14T07:09:40.518Z,49.29
2022-08-14T07:12:54.694Z,49.69
2022-08-14T07:14:58.739Z,48.82
2022-08-14T07:17:28.908Z,48.63
2022-08-14T07:19:59.311Z,47.98
2022-08-14T07:22:33.082Z,47.61
2022-08-14T07:25:13.908Z,46.88
2022-08-14T07:27:42.752Z,47.67
2022-08-14T07:30:34.091Z,47.08
2022-08-14T07:32:58.033Z,46.63
2022-08-14T07:35:25.048Z,47.36
2022-08-14T07:38:08.168Z,47.61
2022-08-14T07:40:35.779Z,47.32
2022-08-14T07:43:14.141Z,47.08
2022-08-14T07:45:41.809Z,47.30
2022-08-14T07:48:09.501Z,46.84
2022-08-14T07:50:42.749Z,46.43
2022-08-14T07:53:14.581Z,45.60
2022-08-14T07:55:43.329Z,45.08
2022-08-14T07:58:30.618Z,45.44
2022-08-14T08:00:58.276Z,45.20
2022-08-14T08:03:28.287Z,44.67
2022-08-14T08:05:57.990Z,44.36
2022-08-14T08:08:26.835Z,43.86
2022-08-14T08:11:02.136Z,43.35
2022-08-14T08:13:34.510Z,42.56
2022-08-14T08:16:08.410Z,42.78
2022-08-14T08:18:36.169Z,41.77
2022-08-14T08:21:03.487Z,42.67
2022-08-14T08:23:40.575Z,42.92
2022-08-14T08:26:18.230Z,41.63
2022-08-14T08:28:56.090Z,41.09
2022-08-14T08:31:32.697Z,41.59
2022-08-14T08:34:06.297Z,40.31
2022-08-14T08:36:41.918Z,40.82
2022-08-14T08:39:17.101Z,40.59
2022-08-14T08:41:53.199Z,39.59
2022-08-14T08:44:33.162Z,39.08
2022-08-14T08:47:06.750Z,38.94
2022-08-14T08:49:48.371Z,39.01
2022-08-14T08:52:24.836Z,38.55
2022-08-14T08:54:55.972Z,38.07
2022-08-14T08:57:24.094Z,38.44
2022-08-14T08:59:58.491Z,38.88
2022-08-14T09:02:27.678Z,38.55
2022-08-14T09:05:02.629Z,38.53
2022-08-14T09:07:30.708Z,38.70
2022-08-14T09:10:00.510Z,39.11
2022-08-14T09:12:32.606Z,38.80
2022-08-14T09:15:12.310Z,39.92
2022-08-14T09:17:41.256Z,39.38
2022-08-14T09:20:11.519Z,39.06
2022-08-14T09:22:47.513Z,38.98
2022-08-14T09:25:17.171Z,39.04
2022-08-14T09:27:47.181Z,38.80
2022-08-14T09:30:32.318Z,39.26
2022-08-14T09:33:11.157Z,38.62
2022-08-14T09:36:08.248Z,38.39
2022-08-14T09:38:56.999Z,38.21
2022-08-14T09:42:21.190Z,39.19
2022-08-14T09:44:55.198Z,39.22
2022-08-14T09:47:43.758Z,38.41
2022-08-14T09:50:28.600Z,38.59
2022-08-14T09:53:04.524Z,37.78
2022-08-14T09:55:42.569Z,37.90
2022-08-14T09:58:19.822Z,37.93
2022-08-14T10:00:59.589Z,38.10
2022-08-14T10:03:35.694Z,37.84
2022-08-14T10:06:12.212Z,37.43
2022-08-14T10:08:51.864Z,37.59
2022-08-14T10:11:35.033Z,35.66
2022-08-14T10:14:35.807Z,35.71
2022-08-14T10:17:06.432Z,35.87
2022-08-14T10:19:47.098Z,36.26
2022-08-14T10:23:13.550Z,36.15
2022-08-14T10:25:12.398Z,36.05
2022-08-14T10:27:39.539Z,34.24
2022-08-14T10:30:16.525Z,34.96
2022-08-14T10:32:51.518Z,34.01
2022-08-14T10:35:22.549Z,33.94
2022-08-14T10:37:53.518Z,33.65
2022-08-14T10:40:43.874Z,33.87
2022-08-14T10:43:31.782Z,33.49
2022-08-14T10:47:36.466Z,32.92
2022-08-14T10:49:02.942Z,32.82
2022-08-14T10:51:36.339Z,33.34
2022-08-14T10:54:26.190Z,33.60
2022-08-14T10:56:57.739Z,33.31
2022-08-14T10:59:31.290Z,33.36
2022-08-14T11:13:18.928Z,32.62
2022-08-14T11:15:49.291Z,33.13
2022-08-14T11:18:20.332Z,32.50
2022-08-14T11:21:02.313Z,32.13
2022-08-14T11:23:40.863Z,32.20
2022-08-14T11:26:10.225Z,31.17
2022-08-14T11:28:47.259Z,30.87
2022-08-14T11:31:22.124Z,30.69
2022-08-14T11:33:58.622Z,30.57
2022-08-14T11:36:56.964Z,30.10
2022-08-14T11:39:34.827Z,29.76
2022-08-14T11:42:57.377Z,29.10
2022-08-14T11:45:04.305Z,28.59
2022-08-14T11:47:44.110Z,28.50
2022-08-14T11:50:36.104Z,28.54
2022-08-14T11:53:05.013Z,28.04
2022-08-14T11:55:39.828Z,28.14
2022-08-14T11:58:10.333Z,29.20
2022-08-14T12:01:01.679Z,28.12
2022-08-14T12:03:51.479Z,28.70
2022-08-14T12:06:29.657Z,27.76
2022-08-14T12:09:08.505Z,27.85
2022-08-14T12:11:43.835Z,28.33
2022-08-14T12:14:13.734Z,28.18
2022-08-14T12:17:02.181Z,27.77
2022-08-14T12:19:34.956Z,27.81
2022-08-14T12:22:03.426Z,27.48
2022-08-14T12:24:36.604Z,27.44
2022-08-14T12:27:07.221Z,27.31
2022-08-14T12:29:34.762Z,27.10
2022-08-14T12:32:12.571Z,26.93
2022-08-14T12:34:45.012Z,27.07
2022-08-14T12:37:12.389Z,26.76
2022-08-14T12:39:40.295Z,26.86
2022-08-14T12:42:08.200Z,26.98
2022-08-14T12:44:39.649Z,27.19
2022-08-14T12:47:15.344Z,27.58
2022-08-14T12:49:57.697Z,28.24
2022-08-14T12:52:41.749Z,28.59
2022-08-14T12:55:21.582Z,28.51
2022-08-14T12:57:53.491Z,28.09
2022-08-14T13:00:25.639Z,28.29
2022-08-14T13:02:55.831Z,27.65
2022-08-14T13:05:32.711Z,27.23
2022-08-14T13:08:06.161Z,26.96
2022-08-14T13:10:58.359Z,26.78
2022-08-14T13:13:34.580Z,27.11
2022-08-14T13:16:21.013Z,27.02
2022-08-14T13:18:57.294Z,27.21
2022-08-14T13:21:26.639Z,27.20
2022-08-14T13:23:56.939Z,27.27
2022-08-14T13:26:28.217Z,26.94
2022-08-14T13:29:02.654Z,26.69
2022-08-14T13:31:34.317Z,27.10
2022-08-14T13:34:04.357Z,26.68
2022-08-14T13:36:54.632Z,26.54
2022-08-14T13:39:21.592Z,25.95
2022-08-14T13:41:56.015Z,26.26
2022-08-14T13:44:27.090Z,25.31
2022-08-14T13:46:54.071Z,24.83
2022-08-14T13:49:21.139Z,24.86
2022-08-14T13:51:53.330Z,24.90
2022-08-14T13:54:21.339Z,25.07
2022-08-14T13:56:49.751Z,24.72
2022-08-14T13:59:20.507Z,24.90
2022-08-14T14:02:07.859Z,24.59
2022-08-14T14:04:40.509Z,24.34
2022-08-14T14:07:13.268Z,23.21
2022-08-14T14:09:52.710Z,23.18
2022-08-14T14:12:38.321Z,24.10
2022-08-14T14:15:09.929Z,24.57
2022-08-14T14:17:39.601Z,24.76
2022-08-14T14:20:10.819Z,24.55
2022-08-14T14:23:01.921Z,25.08
2022-08-14T14:25:45.849Z,24.95
2022-08-14T14:28:16.839Z,25.34
2022-08-14T14:30:54.682Z,25.35
2022-08-14T14:33:46.956Z,25.75
2022-08-14T14:36:20.828Z,26.11
2022-08-14T14:39:04.248Z,26.17
2022-08-14T14:41:37.938Z,26.10
2022-08-14T14:44:13.481Z,26.99
2022-08-14T14:46:50.200Z,27.41
2022-08-14T14:49:21.763Z,27.09
2022-08-14T14:51:51.439Z,26.89
2022-08-14T14:54:30.882Z,27.25
2022-08-14T14:57:09.170Z,27.83
2022-08-14T14:59:37.810Z,27.80
2022-08-14T15:02:08.156Z,27.67
2022-08-14T15:04:38.307Z,28.37
2022-08-14T15:07:07.019Z,28.61
2022-08-14T15:09:34.964Z,29.11
2022-08-14T15:12:16.188Z,29.01
2022-08-14T15:14:55.275Z,30.59
2022-08-14T15:17:28.455Z,30.98
2022-08-14T15:19:56.827Z,32.07
2022-08-14T15:22:25.178Z,31.39
2022-08-14T15:24:52.419Z,31.64
2022-08-14T15:27:26.125Z,31.92
2022-08-14T15:29:53.873Z,31.61
2022-08-14T15:32:23.241Z,32.15
2022-08-14T15:34:53.050Z,31.99
2022-08-14T15:37:23.104Z,32.33
2022-08-14T15:39:52.605Z,32.72
2022-08-14T15:42:23.161Z,32.33
2022-08-14T15:44:58.630Z,32.41
2022-08-14T15:47:31.137Z,33.39
2022-08-14T15:50:05.034Z,32.95
2022-08-14T15:52:35.265Z,33.72
2022-08-14T15:55:13.011Z,34.47
2022-08-14T15:58:11.416Z,35.03
2022-08-14T16:01:00.668Z,35.84
2022-08-14T16:03:35.287Z,35.68
2022-08-14T16:06:10.953Z,36.25
2022-08-14T16:08:45.308Z,36.37
2022-08-14T16:11:14.491Z,35.78
2022-08-14T16:13:45.329Z,35.46
2022-08-14T16:16:47.586Z,35.93
2022-08-14T16:19:10.911Z,36.09
2022-08-14T16:22:01.554Z,36.44
2022-08-14T16:24:57.772Z,36.82
2022-08-14T16:27:37.222Z,36.93
2022-08-14T16:30:25.099Z,37.22
2022-08-14T16:32:57.247Z,37.70
2022-08-14T16:35:42.765Z,37.61
2022-08-14T16:38:29.327Z,37.82
2022-08-14T16:41:23.348Z,38.16
2022-08-14T16:44:13.727Z,38.37
2022-08-14T16:46:57.453Z,38.17
2022-08-14T16:50:02.805Z,38.65
2022-08-14T16:52:43.442Z,38.81
2022-08-14T16:55:05.828Z,39.82
2022-08-14T16:57:34.311Z,39.51
2022-08-14T17:00:07.284Z,39.52
2022-08-14T17:02:47.475Z,39.64
2022-08-14T17:05:20.958Z,40.27
2022-08-14T17:08:33.330Z,40.54
2022-08-14T17:10:56.278Z,40.34
2022-08-14T17:13:58.517Z,40.29
2022-08-14T17:16:24.896Z,40.49
2022-08-14T17:19:00.751Z,40.26
2022-08-14T17:21:31.891Z,41.39
2022-08-14T17:24:57.848Z,41.42
2022-08-14T17:26:55.032Z,41.80
2022-08-14T17:29:32.085Z,41.77
2022-08-14T17:32:06.507Z,41.75
2022-08-14T17:34:54.489Z,42.68
2022-08-14T17:37:35.615Z,42.75
2022-08-14T17:40:16.650Z,43.01
2022-08-14T17:42:51.354Z,43.25
2022-08-14T17:45:28.713Z,43.09
2022-08-14T17:49:14.088Z,43.22
2022-08-14T17:51:12.638Z,43.30
2022-08-14T17:53:52.724Z,44.51
2022-08-14T17:56:20.980Z,44.64
2022-08-14T17:58:49.648Z,44.65
2022-08-14T18:01:23.666Z,44.52
2022-08-14T18:03:54.049Z,43.87
2022-08-14T18:06:40.029Z,44.14
2022-08-14T18:09:24.887Z,44.30
2022-08-14T18:11:58.598Z,44.47
2022-08-14T18:14:32.110Z,44.49
2022-08-14T18:17:01.053Z,45.20
2022-08-14T18:19:28.949Z,45.50
2022-08-14T18:21:58.177Z,45.39
2022-08-14T18:24:30.374Z,46.00
2022-08-14T18:27:17.630Z,46.10
2022-08-14T18:29:56.052Z,45.70
2022-08-14T18:32:27.680Z,46.17
2022-08-14T18:35:15.798Z,45.88
2022-08-14T18:37:55.992Z,45.64
2022-08-14T18:40:34.404Z,45.68
2022-08-14T18:43:03.181Z,45.83
2022-08-14T18:45:41.459Z,45.83
2022-08-14T18:48:28.736Z,46.28
2022-08-14T18:51:19.176Z,45.89
2022-08-14T18:53:59.647Z,46.46
2022-08-14T18:57:03.668Z,46.89
2022-08-14T18:59:36.258Z,47.25
2022-08-14T19:02:30.634Z,47.46
2022-08-14T19:05:02.366Z,47.28
2022-08-14T19:07:34.178Z,47.79
2022-08-14T19:10:07.838Z,48.50
2022-08-14T19:12:53.259Z,47.71
2022-08-14T19:15:26.047Z,47.62
2022-08-14T19:18:14.326Z,47.92
2022-08-14T19:20:53.708Z,47.84
2022-08-14T19:23:42.850Z,47.85
2022-08-14T19:26:35.743Z,48.04
2022-08-14T19:29:23.729Z,47.47
2022-08-14T19:31:55.215Z,47.15
2022-08-14T19:34:52.378Z,46.96
2022-08-14T19:37:45.328Z,47.21
2022-08-14T19:40:19.399Z,46.54
2022-08-14T19:42:47.458Z,46.31
2022-08-14T19:45:16.041Z,46.03
2022-08-14T19:47:43.151Z,46.07
2022-08-14T19:50:40.292Z,46.21
2022-08-14T19:53:11.807Z,46.09
2022-08-14T19:55:58.697Z,46.08
2022-08-14T19:58:55.493Z,46.25
2022-08-14T20:01:37.053Z,46.25
2022-08-14T20:04:44.999Z,46.70
2022-08-14T20:07:00.393Z,47.17
2022-08-14T20:11:03.513Z,47.54
2022-08-14T20:12:29.160Z,46.82
2022-08-14T20:15:15.427Z,47.67
2022-08-14T20:17:52.871Z,47.89
2022-08-14T20:20:30.733Z,48.44
2022-08-14T20:23:11.087Z,48.55
2022-08-14T20:25:55.835Z,48.80
2022-08-14T20:28:32.209Z,48.96
2022-08-14T20:31:36.706Z,48.67
2022-08-14T20:34:18.835Z,48.66
2022-08-14T20:37:09.776Z,48.49
2022-08-14T20:39:54.737Z,48.46
2022-08-14T20:42:43.915Z,48.38
2022-08-14T20:45:21.551Z,47.94
2022-08-14T20:47:58.595Z,48.25
2022-08-14T20:50:29.833Z,48.52
2022-08-14T20:52:58.519Z,48.71
2022-08-14T20:55:41.487Z,48.82
2022-08-14T20:58:42.030Z,47.93
2022-08-14T21:01:11.367Z,47.95
2022-08-14T21:03:56.814Z,47.72
2022-08-14T21:07:23.291Z,47.60
2022-08-14T21:10:03.186Z,47.90
2022-08-14T21:12:33.658Z,47.86
2022-08-14T21:15:00.936Z,47.76
2022-08-14T21:17:30.302Z,47.83
2022-08-14T21:19:57.520Z,48.15
2022-08-14T21:22:27.062Z,48.72
2022-08-14T21:25:02.815Z,48.92
2022-08-14T21:27:46.875Z,48.86
2022-08-14T21:30:52.028Z,48.62
2022-08-14T21:33:10.140Z,48.93
2022-08-14T21:35:46.753Z,48.82
2022-08-14T21:38:18.018Z,49.35
2022-08-14T21:40:50.436Z,49.45
2022-08-14T21:43:20.481Z,49.67
2022-08-14T21:45:53.216Z,49.31
2022-08-14T21:48:21.000Z,49.34
2022-08-14T21:51:00.425Z,49.41
2022-08-14T21:53:34.243Z,49.66
2022-08-14T21:56:03.258Z,49.97
2022-08-14T21:58:52.145Z,49.96
2022-08-14T22:01:20.528Z,49.72
2022-08-14T22:03:49.490Z,49.79
2022-08-14T22:06:28.508Z,49.77
2022-08-14T22:08:58.319Z,50.34
2022-08-14T22:11:26.151Z,50.17
2022-08-14T22:13:56.301Z,49.95
2022-08-14T22:17:00.232Z,50.08
2022-08-14T22:19:20.161Z,50.44
2022-08-14T22:21:49.261Z,50.74
2022-08-14T22:24:25.886Z,50.01
2022-08-14T22:27:06.918Z,50.10
2022-08-14T22:29:34.688Z,49.86
2022-08-14T22:32:06.976Z,50.18
2022-08-14T22:34:34.566Z,50.59
2022-08-14T22:37:02.280Z,50.81
2022-08-14T22:40:16.826Z,50.91
2022-08-14T22:42:22.950Z,50.16
2022-08-14T22:44:56.471Z,50.40
2022-08-14T22:47:24.833Z,50.31
2022-08-14T22:50:32.508Z,50.82
2022-08-14T22:52:40.091Z,51.22
2022-08-14T22:55:08.090Z,50.60
2022-08-14T22:57:41.725Z,51.72
2022-08-14T23:00:16.540Z,51.15
2022-08-14T23:02:45.058Z,51.50
2022-08-14T23:05:15.289Z,51.76
2022-08-14T23:08:59.938Z,51.67
2022-08-14T23:10:33.687Z,51.65
2022-08-14T23:13:02.811Z,51.90
2022-08-14T23:15:30.578Z,51.88
2022-08-14T23:17:58.802Z,51.58
2022-08-14T23:20:29.418Z,51.83
2022-08-14T23:22:57.880Z,51.93
2022-08-14T23:25:56.718Z,51.84
2022-08-14T23:28:35.017Z,51.90
2022-08-14T23:31:10.060Z,52.12
2022-08-14T23:33:46.213Z,51.66
2022-08-14T23:36:31.719Z,52.15
2022-08-14T23:39:07.099Z,52.06
2022-08-14T23:41:46.932Z,51.99
2022-08-14T23:44:24.407Z,51.73
2022-08-14T23:46:57.084Z,52.25
2022-08-14T23:49:55.501Z,52.18
2022-08-14T23:53:04.032Z,51.96
2022-08-14T23:55:05.521Z,52.75
2022-08-14T23:57:38.041Z,52.65
